createdAt,value
2022-07-26T00:00:53.519Z,964.60
2022-07-26T00:01:54.270Z,964.59
2022-07-26T00:02:53.433Z,964.64
2022-07-26T00:03:53.317Z,964.64
2022-07-26T00:04:54.130Z,964.64
2022-07-26T00:05:53.215Z,964.64
2022-07-26T00:06:53.187Z,964.61
2022-07-26T00:07:53.115Z,964.61
2022-07-26T00:08:53.067Z,964.58
2022-07-26T00:09:53.095Z,964.61
2022-07-26T00:10:52.973Z,964.61
2022-07-26T00:11:52.928Z,964.68
2022-07-26T00:12:52.892Z,964.70
2022-07-26T00:13:52.832Z,964.69
2022-07-26T00:14:52.787Z,964.70
2022-07-26T00:15:52.738Z,964.72
2022-07-26T00:16:52.775Z,964.74
2022-07-26T00:17:52.642Z,964.75
2022-07-26T00:18:52.619Z,964.74
2022-07-26T00:19:52.547Z,964.78
2022-07-26T00:20:52.498Z,964.84
2022-07-26T00:21:53.075Z,964.83
2022-07-26T00:22:52.404Z,964.85
2022-07-26T00:23:52.371Z,964.86
2022-07-26T00:24:52.307Z,964.87
2022-07-26T00:25:52.260Z,964.96
2022-07-26T00:26:52.212Z,964.93
2022-07-26T00:27:52.176Z,964.95
2022-07-26T00:28:52.117Z,964.95
2022-07-26T00:29:52.071Z,964.96
2022-07-26T00:30:52.019Z,964.94
2022-07-26T00:31:52.029Z,965.01
2022-07-26T00:32:51.941Z,965.05
2022-07-26T00:33:51.883Z,965.06
2022-07-26T00:34:51.835Z,965.09
2022-07-26T00:35:51.836Z,965.12
2022-07-26T00:36:51.741Z,965.10
2022-07-26T00:37:51.686Z,965.12
2022-07-26T00:38:51.661Z,965.11
2022-07-26T00:39:51.595Z,965.14
2022-07-26T00:40:51.541Z,965.16
2022-07-26T00:41:51.509Z,965.19
2022-07-26T00:42:51.453Z,965.21
2022-07-26T00:43:51.415Z,965.22
2022-07-26T00:44:51.351Z,965.21
2022-07-26T00:45:51.373Z,965.24
2022-07-26T00:46:51.257Z,965.29
2022-07-26T00:47:51.209Z,965.33
2022-07-26T00:48:51.237Z,965.34
2022-07-26T00:49:51.120Z,965.39
2022-07-26T00:50:51.065Z,965.37
2022-07-26T00:51:51.021Z,965.38
2022-07-26T00:52:50.975Z,965.41
2022-07-26T00:53:50.952Z,965.42
2022-07-26T00:54:50.869Z,965.37
2022-07-26T00:55:50.828Z,965.36
2022-07-26T00:56:54.845Z,965.39
2022-07-26T00:57:50.730Z,965.36
2022-07-26T00:58:50.697Z,965.41
2022-07-26T00:59:50.634Z,965.45
2022-07-26T01:00:50.629Z,965.44
2022-07-26T01:01:50.690Z,965.48
2022-07-26T01:02:50.537Z,965.49
2022-07-26T01:03:50.439Z,965.50
2022-07-26T01:04:50.392Z,965.50
2022-07-26T01:05:50.360Z,965.49
2022-07-26T01:06:50.299Z,965.47
2022-07-26T01:07:50.245Z,965.49
2022-07-26T01:08:50.205Z,965.48
2022-07-26T01:09:50.153Z,965.47
2022-07-26T01:10:50.101Z,965.45
2022-07-26T01:11:50.070Z,965.46
2022-07-26T01:12:50.009Z,965.45
2022-07-26T01:13:49.964Z,965.41
2022-07-26T01:14:49.907Z,965.43
2022-07-26T01:15:49.925Z,965.43
2022-07-26T01:16:49.809Z,965.42
2022-07-26T01:17:49.763Z,965.43
2022-07-26T01:18:49.723Z,965.41
2022-07-26T01:19:49.673Z,965.41
2022-07-26T01:20:49.622Z,965.37
2022-07-26T01:21:49.583Z,965.38
2022-07-26T01:22:49.524Z,965.36
2022-07-26T01:23:49.482Z,965.36
2022-07-26T01:24:49.424Z,965.35
2022-07-26T01:25:49.399Z,965.30
2022-07-26T01:26:49.330Z,965.31
2022-07-26T01:27:49.280Z,965.28
2022-07-26T01:28:49.250Z,965.29
2022-07-26T01:29:49.189Z,965.27
2022-07-26T01:30:49.376Z,965.26
2022-07-26T01:31:49.156Z,965.22
2022-07-26T01:32:49.039Z,965.23
2022-07-26T01:33:48.995Z,965.20
2022-07-26T01:34:48.938Z,965.22
2022-07-26T01:35:48.909Z,965.22
2022-07-26T01:36:48.847Z,965.15
2022-07-26T01:37:48.797Z,965.19
2022-07-26T01:38:48.748Z,965.17
2022-07-26T01:39:48.713Z,965.20
2022-07-26T01:40:48.650Z,965.22
2022-07-26T01:41:48.604Z,965.21
2022-07-26T01:42:48.567Z,965.18
2022-07-26T01:43:48.542Z,965.19
2022-07-26T01:44:48.466Z,965.15
2022-07-26T01:45:48.473Z,965.19
2022-07-26T01:46:48.366Z,965.14
2022-07-26T01:47:48.308Z,965.14
2022-07-26T01:48:48.331Z,965.15
2022-07-26T01:49:48.214Z,965.10
2022-07-26T01:50:48.169Z,965.15
2022-07-26T01:51:48.118Z,965.11
2022-07-26T01:52:48.068Z,965.12
2022-07-26T01:53:48.029Z,965.10
2022-07-26T01:54:47.966Z,965.10
2022-07-26T01:55:47.922Z,965.06
2022-07-26T01:56:47.869Z,965.05
2022-07-26T01:57:47.839Z,965.05
2022-07-26T01:58:47.797Z,965.06
2022-07-26T01:59:47.747Z,965.09
2022-07-26T02:00:47.680Z,965.10
2022-07-26T02:01:47.753Z,965.11
2022-07-26T02:02:47.722Z,965.12
2022-07-26T02:03:47.528Z,965.10
2022-07-26T02:04:47.515Z,965.13
2022-07-26T02:05:47.427Z,965.12
2022-07-26T02:06:47.378Z,965.19
2022-07-26T02:07:47.345Z,965.16
2022-07-26T02:08:47.282Z,965.15
2022-07-26T02:09:47.235Z,965.13
2022-07-26T02:10:47.448Z,965.13
2022-07-26T02:11:47.139Z,965.14
2022-07-26T02:12:47.101Z,965.15
2022-07-26T02:13:52.741Z,965.11
2022-07-26T02:14:47.003Z,965.14
2022-07-26T02:15:47.005Z,965.15
2022-07-26T02:16:46.889Z,965.12
2022-07-26T02:17:46.840Z,965.13
2022-07-26T02:18:46.805Z,965.11
2022-07-26T02:19:46.797Z,965.09
2022-07-26T02:20:46.708Z,965.10
2022-07-26T02:21:46.650Z,965.08
2022-07-26T02:22:46.593Z,965.06
2022-07-26T02:23:46.551Z,965.05
2022-07-26T02:24:46.506Z,965.05
2022-07-26T02:25:46.463Z,965.10
2022-07-26T02:26:46.396Z,965.08
2022-07-26T02:27:46.348Z,965.08
2022-07-26T02:28:46.310Z,965.11
2022-07-26T02:29:46.253Z,965.08
2022-07-26T02:30:46.274Z,965.09
2022-07-26T02:31:48.355Z,965.06
2022-07-26T02:32:46.102Z,965.04
2022-07-26T02:33:46.053Z,965.04
2022-07-26T02:34:46.004Z,965.05
2022-07-26T02:35:45.970Z,965.11
2022-07-26T02:36:45.904Z,965.08
2022-07-26T02:37:45.860Z,965.10
2022-07-26T02:38:45.806Z,965.08
2022-07-26T02:39:45.759Z,965.07
2022-07-26T02:40:45.726Z,965.05
2022-07-26T02:41:45.662Z,965.06
2022-07-26T02:42:45.610Z,965.07
2022-07-26T02:43:45.560Z,965.07
2022-07-26T02:44:45.518Z,965.09
2022-07-26T02:45:45.477Z,965.08
2022-07-26T02:46:45.522Z,965.06
2022-07-26T02:47:45.379Z,965.00
2022-07-26T02:48:45.337Z,964.99
2022-07-26T02:49:45.260Z,965.03
2022-07-26T02:50:45.230Z,965.02
2022-07-26T02:51:45.163Z,965.06
2022-07-26T02:52:45.113Z,965.05
2022-07-26T02:53:45.064Z,965.07
2022-07-26T02:54:45.014Z,965.08
2022-07-26T02:55:44.979Z,965.05
2022-07-26T02:56:44.927Z,965.08
2022-07-26T02:57:46.506Z,965.02
2022-07-26T02:58:44.814Z,965.04
2022-07-26T02:59:44.764Z,965.04
2022-07-26T03:00:44.720Z,965.04
2022-07-26T03:01:44.725Z,965.06
2022-07-26T03:02:44.729Z,965.07
2022-07-26T03:03:50.119Z,965.04
2022-07-26T03:04:44.543Z,965.02
2022-07-26T03:05:44.464Z,965.03
2022-07-26T03:06:44.521Z,965.04
2022-07-26T03:07:44.363Z,964.99
2022-07-26T03:08:44.336Z,965.00
2022-07-26T03:09:44.284Z,965.00
2022-07-26T03:10:44.232Z,965.04
2022-07-26T03:11:53.715Z,965.05
2022-07-26T03:12:44.116Z,965.03
2022-07-26T03:13:44.084Z,965.02
2022-07-26T03:14:44.017Z,965.01
2022-07-26T03:15:44.013Z,965.07
2022-07-26T03:16:43.920Z,965.03
2022-07-26T03:17:43.883Z,965.05
2022-07-26T03:18:43.818Z,965.03
2022-07-26T03:19:43.768Z,965.10
2022-07-26T03:20:43.732Z,965.08
2022-07-26T03:21:43.673Z,965.07
2022-07-26T03:22:43.624Z,965.08
2022-07-26T03:23:43.582Z,965.04
2022-07-26T03:24:43.520Z,965.10
2022-07-26T03:25:43.470Z,965.11
2022-07-26T03:26:43.417Z,965.11
2022-07-26T03:27:43.367Z,965.11
2022-07-26T03:28:43.336Z,965.13
2022-07-26T03:29:43.270Z,965.13
2022-07-26T03:30:43.229Z,965.14
2022-07-26T03:31:43.185Z,965.14
2022-07-26T03:32:43.122Z,965.11
2022-07-26T03:33:43.086Z,965.08
2022-07-26T03:34:43.021Z,965.08
2022-07-26T03:35:42.973Z,965.09
2022-07-26T03:36:42.924Z,965.06
2022-07-26T03:37:45.557Z,965.05
2022-07-26T03:38:42.822Z,965.05
2022-07-26T03:39:42.771Z,965.03
2022-07-26T03:40:42.739Z,965.02
2022-07-26T03:41:42.680Z,965.05
2022-07-26T03:42:42.623Z,965.09
2022-07-26T03:43:42.571Z,965.09
2022-07-26T03:44:42.529Z,965.10
2022-07-26T03:45:42.487Z,965.11
2022-07-26T03:46:42.448Z,965.14
2022-07-26T03:47:42.374Z,965.11
2022-07-26T03:48:42.375Z,965.13
2022-07-26T03:49:42.277Z,965.11
2022-07-26T03:50:42.242Z,965.11
2022-07-26T03:51:42.172Z,965.13
2022-07-26T03:52:42.163Z,965.10
2022-07-26T03:53:42.075Z,965.15
2022-07-26T03:54:42.027Z,965.15
2022-07-26T03:55:41.986Z,965.15
2022-07-26T03:56:41.924Z,965.15
2022-07-26T03:57:41.875Z,965.13
2022-07-26T03:58:41.840Z,965.11
2022-07-26T03:59:41.788Z,965.14
2022-07-26T04:00:41.723Z,965.19
2022-07-26T04:01:41.838Z,965.18
2022-07-26T04:02:42.315Z,965.17
2022-07-26T04:03:45.719Z,965.20
2022-07-26T04:04:41.541Z,965.20
2022-07-26T04:05:41.478Z,965.23
2022-07-26T04:06:41.425Z,965.27
2022-07-26T04:07:41.382Z,965.24
2022-07-26T04:08:41.326Z,965.27
2022-07-26T04:09:41.290Z,965.26
2022-07-26T04:10:41.226Z,965.27
2022-07-26T04:11:41.179Z,965.28
2022-07-26T04:12:41.132Z,965.22
2022-07-26T04:13:41.078Z,965.23
2022-07-26T04:14:41.042Z,965.28
2022-07-26T04:15:40.996Z,965.28
2022-07-26T04:16:43.603Z,965.29
2022-07-26T04:17:40.880Z,965.32
2022-07-26T04:18:40.834Z,965.28
2022-07-26T04:19:40.778Z,965.30
2022-07-26T04:20:40.735Z,965.32
2022-07-26T04:21:40.692Z,965.30
2022-07-26T04:22:40.627Z,965.33
2022-07-26T04:23:40.581Z,965.32
2022-07-26T04:24:40.544Z,965.35
2022-07-26T04:25:41.353Z,965.37
2022-07-26T04:26:40.429Z,965.43
2022-07-26T04:27:40.392Z,965.42
2022-07-26T04:28:40.328Z,965.41
2022-07-26T04:29:40.277Z,965.43
2022-07-26T04:30:40.247Z,965.41
2022-07-26T04:31:40.276Z,965.41
2022-07-26T04:32:40.156Z,965.42
2022-07-26T04:33:40.087Z,965.47
2022-07-26T04:34:40.027Z,965.44
2022-07-26T04:35:39.980Z,965.43
2022-07-26T04:36:39.931Z,965.46
2022-07-26T04:37:39.891Z,965.42
2022-07-26T04:38:39.829Z,965.42
2022-07-26T04:39:39.779Z,965.45
2022-07-26T04:40:40.821Z,965.45
2022-07-26T04:41:39.683Z,965.43
2022-07-26T04:42:39.643Z,965.48
2022-07-26T04:43:39.599Z,965.47
2022-07-26T04:44:39.528Z,965.51
2022-07-26T04:45:39.528Z,965.52
2022-07-26T04:46:39.452Z,965.51
2022-07-26T04:47:39.424Z,965.50
2022-07-26T04:48:39.403Z,965.52
2022-07-26T04:49:39.281Z,965.56
2022-07-26T04:50:39.249Z,965.56
2022-07-26T04:51:39.193Z,965.58
2022-07-26T04:52:39.137Z,965.55
2022-07-26T04:53:39.100Z,965.56
2022-07-26T04:54:39.034Z,965.57
2022-07-26T04:55:38.986Z,965.57
2022-07-26T04:56:38.942Z,965.58
2022-07-26T04:57:38.900Z,965.57
2022-07-26T04:58:38.833Z,965.59
2022-07-26T04:59:38.783Z,965.58
2022-07-26T05:00:56.807Z,965.55
2022-07-26T05:01:38.759Z,965.53
2022-07-26T05:02:38.700Z,965.57
2022-07-26T05:03:38.612Z,965.53
2022-07-26T05:04:38.537Z,965.53
2022-07-26T05:05:38.485Z,965.54
2022-07-26T05:06:38.560Z,965.51
2022-07-26T05:07:38.406Z,965.50
2022-07-26T05:08:38.337Z,965.52
2022-07-26T05:09:38.287Z,965.57
2022-07-26T05:10:38.237Z,965.56
2022-07-26T05:11:38.196Z,965.52
2022-07-26T05:12:38.138Z,965.58
2022-07-26T05:13:38.102Z,965.57
2022-07-26T05:14:38.057Z,965.57
2022-07-26T05:15:37.989Z,965.58
2022-07-26T05:16:39.287Z,965.59
2022-07-26T05:17:37.890Z,965.60
2022-07-26T05:18:45.737Z,965.59
2022-07-26T05:19:37.805Z,965.59
2022-07-26T05:20:37.761Z,965.58
2022-07-26T05:21:37.697Z,965.61
2022-07-26T05:22:37.642Z,965.65
2022-07-26T05:23:37.607Z,965.60
2022-07-26T05:24:37.544Z,965.60
2022-07-26T05:25:37.497Z,965.59
2022-07-26T05:26:37.451Z,965.63
2022-07-26T05:27:37.398Z,965.61
2022-07-26T05:28:37.370Z,965.63
2022-07-26T05:29:37.299Z,965.62
2022-07-26T05:30:37.307Z,965.65
2022-07-26T05:31:37.196Z,965.63
2022-07-26T05:32:37.152Z,965.63
2022-07-26T05:33:37.101Z,965.61
2022-07-26T05:34:37.062Z,965.61
2022-07-26T05:35:36.997Z,965.63
2022-07-26T05:36:36.950Z,965.64
2022-07-26T05:37:36.919Z,965.67
2022-07-26T05:38:36.876Z,965.65
2022-07-26T05:39:36.815Z,965.64
2022-07-26T05:40:36.757Z,965.63
2022-07-26T05:41:36.703Z,965.65
2022-07-26T05:42:36.651Z,965.66
2022-07-26T05:43:40.742Z,965.63
2022-07-26T05:44:36.566Z,965.65
2022-07-26T05:45:36.551Z,965.63
2022-07-26T05:46:36.522Z,965.63
2022-07-26T05:47:36.405Z,965.66
2022-07-26T05:48:36.426Z,965.67
2022-07-26T05:49:39.803Z,965.67
2022-07-26T05:50:36.259Z,965.68
2022-07-26T05:51:36.211Z,965.65
2022-07-26T05:52:36.173Z,965.66
2022-07-26T05:53:36.107Z,965.69
2022-07-26T05:54:36.058Z,965.69
2022-07-26T05:55:36.011Z,965.73
2022-07-26T05:56:35.974Z,965.72
2022-07-26T05:57:35.914Z,965.71
2022-07-26T05:58:35.861Z,965.72
2022-07-26T05:59:35.811Z,965.70
2022-07-26T06:00:35.775Z,965.68
2022-07-26T06:01:35.727Z,965.66
2022-07-26T06:02:35.708Z,965.69
2022-07-26T06:03:35.615Z,965.71
2022-07-26T06:04:35.654Z,965.65
2022-07-26T06:05:35.529Z,965.63
2022-07-26T06:06:35.480Z,965.67
2022-07-26T06:07:35.426Z,965.66
2022-07-26T06:08:35.367Z,965.62
2022-07-26T06:09:35.318Z,965.67
2022-07-26T06:10:35.280Z,965.62
2022-07-26T06:11:35.221Z,965.63
2022-07-26T06:12:35.170Z,965.67
2022-07-26T06:13:35.135Z,965.66
2022-07-26T06:14:35.073Z,965.66
2022-07-26T06:15:35.021Z,965.62
2022-07-26T06:16:34.973Z,965.66
2022-07-26T06:17:34.968Z,965.66
2022-07-26T06:18:34.891Z,965.66
2022-07-26T06:19:34.841Z,965.64
2022-07-26T06:20:34.776Z,965.60
2022-07-26T06:21:34.728Z,965.68
2022-07-26T06:22:34.678Z,965.70
2022-07-26T06:23:35.308Z,965.68
2022-07-26T06:24:34.579Z,965.67
2022-07-26T06:25:34.529Z,965.66
2022-07-26T06:26:34.480Z,965.67
2022-07-26T06:27:34.438Z,965.63
2022-07-26T06:28:34.405Z,965.63
2022-07-26T06:29:34.334Z,965.65
2022-07-26T06:30:34.286Z,965.67
2022-07-26T06:31:34.272Z,965.68
2022-07-26T06:32:34.185Z,965.69
2022-07-26T06:33:34.159Z,965.69
2022-07-26T06:34:34.089Z,965.68
2022-07-26T06:35:34.043Z,965.72
2022-07-26T06:36:33.992Z,965.71
2022-07-26T06:37:33.941Z,965.69
2022-07-26T06:38:33.907Z,965.72
2022-07-26T06:39:33.843Z,965.72
2022-07-26T06:40:33.795Z,965.72
2022-07-26T06:41:33.743Z,965.67
2022-07-26T06:42:33.692Z,965.67
2022-07-26T06:43:33.665Z,965.71
2022-07-26T06:44:33.601Z,965.71
2022-07-26T06:45:33.581Z,965.72
2022-07-26T06:46:33.498Z,965.70
2022-07-26T06:47:33.448Z,965.68
2022-07-26T06:48:33.456Z,965.72
2022-07-26T06:49:33.488Z,965.69
2022-07-26T06:50:33.318Z,965.73
2022-07-26T06:51:33.253Z,965.75
2022-07-26T06:52:33.222Z,965.73
2022-07-26T06:53:33.259Z,965.74
2022-07-26T06:54:33.109Z,965.79
2022-07-26T06:55:33.057Z,965.80
2022-07-26T06:56:33.030Z,965.76
2022-07-26T06:57:32.961Z,965.78
2022-07-26T06:58:32.917Z,965.77
2022-07-26T06:59:32.862Z,965.78
2022-07-26T07:00:32.812Z,965.74
2022-07-26T07:01:58.550Z,965.76
2022-07-26T07:02:32.719Z,965.75
2022-07-26T07:03:32.667Z,965.78
2022-07-26T07:04:33.323Z,965.76
2022-07-26T07:05:32.575Z,965.80
2022-07-26T07:06:32.522Z,965.78
2022-07-26T07:07:32.488Z,965.80
2022-07-26T07:08:32.425Z,965.79
2022-07-26T07:09:32.376Z,965.75
2022-07-26T07:10:32.329Z,965.82
2022-07-26T07:11:32.278Z,965.81
2022-07-26T07:12:32.244Z,965.79
2022-07-26T07:13:32.181Z,965.79
2022-07-26T07:14:32.135Z,965.77
2022-07-26T07:15:32.085Z,965.75
2022-07-26T07:16:32.091Z,965.75
2022-07-26T07:17:32.001Z,965.73
2022-07-26T07:18:31.939Z,965.71
2022-07-26T07:19:31.895Z,965.67
2022-07-26T07:20:31.842Z,965.71
2022-07-26T07:21:31.850Z,965.68
2022-07-26T07:22:31.757Z,965.71
2022-07-26T07:23:31.697Z,965.69
2022-07-26T07:24:31.650Z,965.68
2022-07-26T07:25:31.600Z,965.74
2022-07-26T07:26:31.552Z,965.69
2022-07-26T07:27:31.524Z,965.65
2022-07-26T07:28:31.458Z,965.69
2022-07-26T07:29:31.421Z,965.69
2022-07-26T07:30:31.357Z,965.64
2022-07-26T07:31:49.024Z,965.61
2022-07-26T07:32:31.349Z,965.67
2022-07-26T07:33:36.489Z,965.66
2022-07-26T07:34:31.170Z,965.64
2022-07-26T07:35:32.055Z,965.64
2022-07-26T07:36:31.068Z,965.63
2022-07-26T07:37:52.942Z,965.68
2022-07-26T07:38:30.974Z,965.69
2022-07-26T07:39:34.961Z,965.68
2022-07-26T07:40:30.897Z,965.72
2022-07-26T07:41:30.827Z,965.68
2022-07-26T07:42:30.783Z,965.69
2022-07-26T07:43:30.732Z,965.70
2022-07-26T07:44:30.699Z,965.63
2022-07-26T07:45:30.638Z,965.68
2022-07-26T07:46:30.651Z,965.72
2022-07-26T07:47:30.540Z,965.64
2022-07-26T07:48:30.525Z,965.67
2022-07-26T07:49:30.535Z,965.72
2022-07-26T07:50:30.395Z,965.72
2022-07-26T07:51:30.364Z,965.68
2022-07-26T07:52:30.308Z,965.67
2022-07-26T07:53:30.408Z,965.64
2022-07-26T07:54:30.203Z,965.68
2022-07-26T07:55:41.410Z,965.72
2022-07-26T07:56:30.107Z,965.72
2022-07-26T07:57:30.076Z,965.72
2022-07-26T07:58:30.014Z,965.77
2022-07-26T07:59:29.963Z,965.77
2022-07-26T08:00:29.917Z,965.85
2022-07-26T08:01:39.547Z,965.78
2022-07-26T08:02:29.836Z,965.76
2022-07-26T08:03:38.232Z,965.77
2022-07-26T08:04:29.806Z,965.79
2022-07-26T08:05:29.680Z,965.80
2022-07-26T08:06:29.630Z,965.79
2022-07-26T08:07:33.070Z,965.75
2022-07-26T08:08:29.550Z,965.73
2022-07-26T08:09:29.502Z,965.77
2022-07-26T08:10:29.444Z,965.75
2022-07-26T08:11:30.000Z,965.76
2022-07-26T08:12:29.360Z,965.82
2022-07-26T08:13:29.295Z,965.85
2022-07-26T08:14:29.249Z,965.83
2022-07-26T08:15:29.209Z,965.90
2022-07-26T08:16:29.237Z,965.78
2022-07-26T08:17:29.107Z,965.80
2022-07-26T08:18:29.058Z,965.84
2022-07-26T08:19:42.121Z,965.82
2022-07-26T08:20:28.974Z,965.83
2022-07-26T08:21:29.222Z,965.82
2022-07-26T08:22:28.894Z,965.82
2022-07-26T08:23:28.828Z,965.81
2022-07-26T08:24:28.791Z,965.81
2022-07-26T08:25:28.724Z,965.91
2022-07-26T08:26:28.676Z,965.93
2022-07-26T08:27:28.648Z,965.91
2022-07-26T08:28:58.428Z,965.89
2022-07-26T08:29:28.541Z,965.91
2022-07-26T08:30:28.487Z,965.92
2022-07-26T08:31:28.686Z,965.89
2022-07-26T08:32:28.414Z,965.89
2022-07-26T08:33:28.362Z,965.92
2022-07-26T08:34:28.300Z,965.96
2022-07-26T08:35:28.251Z,965.98
2022-07-26T08:36:32.137Z,966.00
2022-07-26T08:37:28.174Z,966.01
2022-07-26T08:38:28.111Z,966.00
2022-07-26T08:39:28.063Z,966.02
2022-07-26T08:40:28.020Z,966.01
2022-07-26T08:41:27.975Z,965.96
2022-07-26T08:42:27.941Z,965.94
2022-07-26T08:43:27.878Z,965.88
2022-07-26T08:44:27.832Z,965.90
2022-07-26T08:45:27.784Z,966.01
2022-07-26T08:46:28.366Z,966.03
2022-07-26T08:47:39.890Z,966.07
2022-07-26T08:48:27.727Z,966.04
2022-07-26T08:49:27.652Z,965.98
2022-07-26T08:50:27.569Z,965.97
2022-07-26T08:51:27.503Z,966.00
2022-07-26T08:52:27.473Z,966.05
2022-07-26T08:53:27.411Z,966.10
2022-07-26T08:54:27.363Z,966.06
2022-07-26T08:55:32.266Z,966.13
2022-07-26T08:56:27.284Z,966.14
2022-07-26T08:57:27.222Z,966.15
2022-07-26T08:58:27.200Z,966.11
2022-07-26T08:59:27.134Z,966.14
2022-07-26T09:00:27.195Z,966.10
2022-07-26T09:01:27.063Z,966.07
2022-07-26T09:02:27.044Z,966.09
2022-07-26T09:03:27.020Z,966.09
2022-07-26T09:04:38.617Z,966.07
2022-07-26T09:05:26.854Z,966.10
2022-07-26T09:06:28.234Z,966.12
2022-07-26T09:07:26.763Z,966.15
2022-07-26T09:08:26.730Z,966.20
2022-07-26T09:09:26.685Z,966.15
2022-07-26T09:10:26.626Z,966.17
2022-07-26T09:11:26.577Z,966.17
2022-07-26T09:12:26.534Z,966.17
2022-07-26T09:13:26.490Z,966.20
2022-07-26T09:14:35.412Z,966.18
2022-07-26T09:15:26.432Z,966.17
2022-07-26T09:16:26.490Z,966.13
2022-07-26T09:17:26.350Z,966.24
2022-07-26T09:18:26.300Z,966.24
2022-07-26T09:19:26.264Z,966.24
2022-07-26T09:20:27.894Z,966.22
2022-07-26T09:21:26.148Z,966.24
2022-07-26T09:22:26.113Z,966.22
2022-07-26T09:23:26.057Z,966.26
2022-07-26T09:24:26.039Z,966.27
2022-07-26T09:25:25.968Z,966.27
2022-07-26T09:26:25.946Z,966.32
2022-07-26T09:27:28.264Z,966.16
2022-07-26T09:28:25.844Z,966.23
2022-07-26T09:29:25.793Z,966.25
2022-07-26T09:30:25.739Z,966.13
2022-07-26T09:31:25.788Z,966.06
2022-07-26T09:32:25.673Z,966.18
2022-07-26T09:33:25.588Z,966.14
2022-07-26T09:34:25.566Z,966.19
2022-07-26T09:35:49.933Z,966.26
2022-07-26T09:36:25.482Z,966.25
2022-07-26T09:37:25.447Z,966.30
2022-07-26T09:38:25.388Z,966.29
2022-07-26T09:39:34.092Z,966.30
2022-07-26T09:40:25.300Z,966.37
2022-07-26T09:41:25.244Z,966.43
2022-07-26T09:42:28.978Z,966.35
2022-07-26T09:43:25.173Z,966.35
2022-07-26T09:44:25.108Z,966.35
2022-07-26T09:45:25.094Z,966.32
2022-07-26T09:46:25.047Z,966.31
2022-07-26T09:47:24.968Z,966.34
2022-07-26T09:48:24.950Z,966.33
2022-07-26T09:49:28.277Z,966.28
2022-07-26T09:50:24.922Z,966.31
2022-07-26T09:51:25.409Z,966.34
2022-07-26T09:52:24.762Z,966.33
2022-07-26T09:53:24.742Z,966.33
2022-07-26T09:54:24.648Z,966.29
2022-07-26T09:55:24.614Z,966.25
2022-07-26T09:56:24.597Z,966.25
2022-07-26T09:57:24.557Z,966.27
2022-07-26T09:58:24.512Z,966.24
2022-07-26T09:59:24.439Z,966.37
2022-07-26T10:00:24.388Z,966.33
2022-07-26T10:01:24.403Z,966.39
2022-07-26T10:02:31.051Z,966.41
2022-07-26T10:03:31.420Z,966.28
2022-07-26T10:04:24.247Z,966.34
2022-07-26T10:05:30.926Z,966.38
2022-07-26T10:06:30.082Z,966.39
2022-07-26T10:07:24.095Z,966.39
2022-07-26T10:08:24.033Z,966.43
2022-07-26T10:09:24.030Z,966.43
2022-07-26T10:10:23.970Z,966.46
2022-07-26T10:11:23.910Z,966.47
2022-07-26T10:12:27.226Z,966.47
2022-07-26T10:13:23.857Z,966.53
2022-07-26T10:14:23.784Z,966.52
2022-07-26T10:15:23.777Z,966.48
2022-07-26T10:16:23.718Z,966.49
2022-07-26T10:17:28.997Z,966.49
2022-07-26T10:18:23.614Z,966.45
2022-07-26T10:19:23.601Z,966.52
2022-07-26T10:20:24.795Z,966.47
2022-07-26T10:21:23.465Z,966.48
2022-07-26T10:22:23.417Z,966.45
2022-07-26T10:23:23.399Z,966.41
2022-07-26T10:24:23.366Z,966.43
2022-07-26T10:25:23.333Z,966.45
2022-07-26T10:26:23.264Z,966.35
2022-07-26T10:27:23.224Z,966.43
2022-07-26T10:28:23.178Z,966.42
2022-07-26T10:29:23.134Z,966.39
2022-07-26T10:30:23.111Z,966.41
2022-07-26T10:31:23.116Z,966.45
2022-07-26T10:32:22.982Z,966.53
2022-07-26T10:33:22.962Z,966.56
2022-07-26T10:34:22.958Z,966.54
2022-07-26T10:35:22.892Z,966.58
2022-07-26T10:36:22.827Z,966.57
2022-07-26T10:37:22.778Z,966.54
2022-07-26T10:38:22.743Z,966.53
2022-07-26T10:39:22.698Z,966.51
2022-07-26T10:40:22.783Z,966.50
2022-07-26T10:41:22.637Z,966.57
2022-07-26T10:42:22.563Z,966.57
2022-07-26T10:43:40.034Z,966.54
2022-07-26T10:44:22.485Z,966.54
2022-07-26T10:45:22.474Z,966.55
2022-07-26T10:46:22.414Z,966.58
2022-07-26T10:47:22.342Z,966.59
2022-07-26T10:48:22.305Z,966.44
2022-07-26T10:49:22.265Z,966.43
2022-07-26T10:50:22.446Z,966.45
2022-07-26T10:51:22.157Z,966.54
2022-07-26T10:52:22.137Z,966.55
2022-07-26T10:53:22.139Z,966.54
2022-07-26T10:54:22.057Z,966.49
2022-07-26T10:55:22.012Z,966.59
2022-07-26T10:56:21.997Z,966.51
2022-07-26T10:57:21.944Z,966.51
2022-07-26T10:58:21.877Z,966.47
2022-07-26T10:59:45.764Z,966.60
2022-07-26T11:00:21.789Z,966.53
2022-07-26T11:01:21.824Z,966.56
2022-07-26T11:02:21.755Z,966.56
2022-07-26T11:03:21.775Z,966.62
2022-07-26T11:04:21.620Z,966.60
2022-07-26T11:05:21.582Z,966.53
2022-07-26T11:06:21.552Z,966.54
2022-07-26T11:07:21.488Z,966.56
2022-07-26T11:08:21.485Z,966.57
2022-07-26T11:09:21.578Z,966.64
2022-07-26T11:10:21.377Z,966.59
2022-07-26T11:11:21.316Z,966.59
2022-07-26T11:12:21.283Z,966.60
2022-07-26T11:13:21.273Z,966.57
2022-07-26T11:14:21.205Z,966.58
2022-07-26T11:15:21.154Z,966.56
2022-07-26T11:16:21.237Z,966.63
2022-07-26T11:17:21.085Z,966.63
2022-07-26T11:18:21.075Z,966.63
2022-07-26T11:19:21.043Z,966.62
2022-07-26T11:20:20.929Z,966.64
2022-07-26T11:21:20.886Z,966.66
2022-07-26T11:22:20.869Z,966.65
2022-07-26T11:23:20.851Z,966.65
2022-07-26T11:24:20.753Z,966.65
2022-07-26T11:25:20.729Z,966.71
2022-07-26T11:26:20.691Z,966.68
2022-07-26T11:27:20.656Z,966.70
2022-07-26T11:28:20.581Z,966.75
2022-07-26T11:29:22.664Z,966.76
2022-07-26T11:30:20.502Z,966.77
2022-07-26T11:31:20.492Z,966.74
2022-07-26T11:32:22.063Z,966.73
2022-07-26T11:33:20.386Z,966.71
2022-07-26T11:34:20.361Z,966.72
2022-07-26T11:35:20.293Z,966.71
2022-07-26T11:36:20.275Z,966.72
2022-07-26T11:37:20.510Z,966.74
2022-07-26T11:38:20.139Z,966.73
2022-07-26T11:39:20.117Z,966.77
2022-07-26T11:40:20.070Z,966.74
2022-07-26T11:41:20.022Z,966.78
2022-07-26T11:42:20.000Z,966.73
2022-07-26T11:43:19.914Z,966.74
2022-07-26T11:44:19.887Z,966.73
2022-07-26T11:45:19.838Z,966.69
2022-07-26T11:46:19.849Z,966.71
2022-07-26T11:47:19.791Z,966.70
2022-07-26T11:48:19.736Z,966.69
2022-07-26T11:49:19.676Z,966.73
2022-07-26T11:50:22.940Z,966.75
2022-07-26T11:51:19.584Z,966.74
2022-07-26T11:52:24.349Z,966.74
2022-07-26T11:53:19.528Z,966.77
2022-07-26T11:54:19.429Z,966.78
2022-07-26T11:55:19.395Z,966.76
2022-07-26T11:56:19.342Z,966.77
2022-07-26T11:57:19.340Z,966.80
2022-07-26T11:58:19.250Z,966.77
2022-07-26T11:59:19.215Z,966.76
2022-07-26T12:00:19.206Z,966.79
2022-07-26T12:01:19.123Z,966.79
2022-07-26T12:02:19.103Z,966.81
2022-07-26T12:03:19.048Z,966.79
2022-07-26T12:04:19.096Z,966.80
2022-07-26T12:05:19.585Z,966.79
2022-07-26T12:06:18.979Z,966.81
2022-07-26T12:07:18.858Z,966.84
2022-07-26T12:08:19.131Z,966.81
2022-07-26T12:09:18.833Z,966.83
2022-07-26T12:10:18.729Z,966.81
2022-07-26T12:11:18.695Z,966.81
2022-07-26T12:12:18.690Z,966.83
2022-07-26T12:13:18.593Z,966.82
2022-07-26T12:14:18.873Z,966.88
2022-07-26T12:15:18.778Z,966.85
2022-07-26T12:16:18.488Z,966.83
2022-07-26T12:17:18.410Z,966.85
2022-07-26T12:18:18.397Z,966.82
2022-07-26T12:19:18.329Z,966.83
2022-07-26T12:20:18.291Z,966.80
2022-07-26T12:21:18.247Z,966.84
2022-07-26T12:22:18.195Z,966.84
2022-07-26T12:23:18.206Z,966.84
2022-07-26T12:24:18.112Z,966.73
2022-07-26T12:25:18.094Z,966.74
2022-07-26T12:26:20.926Z,966.69
2022-07-26T12:27:17.990Z,966.78
2022-07-26T12:28:17.963Z,966.75